Time;durP1;ratioP1;P1;durP2;ratioP2;P2;SDS_P1;SDS_P2;PMS_P1;PMS_P2;Temp;Humidity;BMP_temperature;BMP_pressure;BME280_temperature;BME280_humidity;BME280_pressure;Samples;Min_cycle;Max_cycle;Signal;HPM_P1;HPM_P2
2022/08/27 00:02:07;;;;;;;3.50;1.67;;;17.90;99.90;;;;;;5117020;28;20614;-83
2022/08/27 00:04:34;;;;;;;2.03;1.60;;;17.70;99.90;;;;;;5117641;28;20176;-82
2022/08/27 00:07:01;;;;;;;1.77;1.67;;;18.20;99.90;;;;;;5116861;28;20186;-81
2022/08/27 00:09:27;;;;;;;1.73;1.50;;;17.80;99.90;;;;;;5119542;28;20554;-83
2022/08/27 00:11:55;;;;;;;1.57;1.47;;;17.80;99.90;;;;;;5120296;28;20201;-83
2022/08/27 00:14:21;;;;;;;1.90;1.50;;;18.10;99.90;;;;;;5121032;28;20249;-82
2022/08/27 00:16:47;;;;;;;1.60;1.50;;;;;;;;;;5119721;28;20631;-82
2022/08/27 00:19:13;;;;;;;3.67;1.97;;;;;;;;;;5121049;28;20668;-82
2022/08/27 00:21:39;;;;;;;1.87;1.63;;;18.20;99.90;;;;;;5119746;28;20656;-80
2022/08/27 00:24:05;;;;;;;2.13;1.83;;;18.10;99.90;;;;;;5119731;28;20176;-81
2022/08/27 00:26:30;;;;;;;1.90;1.67;;;18.00;99.90;;;;;;5120812;28;20171;-81
2022/08/27 00:28:56;;;;;;;1.90;1.80;;;18.00;99.90;;;;;;5120831;28;20197;-84
2022/08/27 00:31:22;;;;;;;2.10;1.70;;;;;;;;;;5121067;28;20208;-83
2022/08/27 00:33:48;;;;;;;1.73;1.40;;;18.00;99.90;;;;;;5121118;28;20712;-82
2022/08/27 00:36:14;;;;;;;1.70;1.60;;;;;;;;;;5121166;28;20163;-81
2022/08/27 00:38:40;;;;;;;2.47;1.50;;;18.00;99.90;;;;;;5118909;28;20251;-81
2022/08/27 00:41:10;;;;;;;1.60;1.50;;;17.80;99.90;;;;;;5120802;28;20168;-82
2022/08/27 00:43:46;;;;;;;1.90;1.60;;;17.90;99.90;;;;;;5120554;28;20702;-80
2022/08/27 00:46:20;;;;;;;1.57;1.47;;;17.60;99.90;;;;;;5119564;28;20176;-82
2022/08/27 00:48:47;;;;;;;3.53;1.43;;;17.40;99.90;;;;;;5119199;28;20231;-80
2022/08/27 00:51:13;;;;;;;2.93;1.63;;;17.70;99.90;;;;;;5119497;28;20200;-82
2022/08/27 00:53:40;;;;;;;1.73;1.63;;;17.60;99.90;;;;;;5121199;28;20190;-80
2022/08/27 00:56:16;;;;;;;1.50;1.40;;;17.60;99.90;;;;;;5120542;28;20183;-83
2022/08/27 00:58:46;;;;;;;2.37;1.50;;;17.40;99.90;;;;;;5121183;28;20187;-81
2022/08/27 01:01:15;;;;;;;2.07;1.53;;;17.60;99.90;;;;;;5120150;27;20173;-82
2022/08/27 01:03:46;;;;;;;2.57;1.73;;;17.60;99.90;;;;;;5118694;28;20176;-81
2022/08/27 01:06:14;;;;;;;1.70;1.60;;;17.70;99.90;;;;;;5119549;28;20175;-83
2022/08/27 01:08:49;;;;;;;3.37;2.00;;;17.60;99.90;;;;;;5119684;28;20192;-80
2022/08/27 01:11:15;;;;;;;2.40;1.90;;;17.70;99.90;;;;;;5120481;28;20195;-82
2022/08/27 01:13:42;;;;;;;2.10;1.90;;;17.60;99.90;;;;;;5120118;28;20197;-83
2022/08/27 01:16:10;;;;;;;2.33;1.90;;;17.50;99.90;;;;;;5120095;28;20529;-81
2022/08/27 01:18:37;;;;;;;2.80;1.63;;;17.50;99.90;;;;;;5119206;28;20199;-81
2022/08/27 01:21:21;;;;;;;1.70;1.60;;;17.30;99.90;;;;;;5120900;28;20175;-80
2022/08/27 01:24:30;;;;;;;2.10;1.70;;;17.60;99.90;;;;;;5119504;28;20179;-81
2022/08/27 01:26:58;;;;;;;1.60;1.50;;;17.70;99.90;;;;;;5108386;28;20191;-81
2022/08/27 01:29:24;;;;;;;2.30;1.70;;;17.60;99.90;;;;;;5121007;28;20191;-82
2022/08/27 01:31:49;;;;;;;2.07;1.67;;;17.30;99.90;;;;;;5123958;28;20262;-82
2022/08/27 01:34:15;;;;;;;2.17;1.50;;;17.40;99.90;;;;;;5122399;28;20227;-80
2022/08/27 01:36:41;;;;;;;1.93;1.53;;;17.40;99.90;;;;;;5124812;28;20188;-82
2022/08/27 01:39:07;;;;;;;1.47;1.37;;;;;;;;;;5124025;28;20283;-82
2022/08/27 01:41:33;;;;;;;2.27;1.70;;;17.10;99.90;;;;;;5120869;28;20274;-80
2022/08/27 01:43:59;;;;;;;1.67;1.53;;;17.30;99.90;;;;;;5117845;28;20187;-80
2022/08/27 01:46:27;;;;;;;1.87;1.70;;;17.30;99.90;;;;;;5117631;28;20187;-81
2022/08/27 01:48:53;;;;;;;1.80;1.57;;;17.30;99.90;;;;;;5116876;28;20226;-80
2022/08/27 01:51:20;;;;;;;2.17;1.70;;;17.20;99.90;;;;;;5117556;28;20226;-80
2022/08/27 01:53:46;;;;;;;1.63;1.53;;;17.20;99.90;;;;;;5118957;28;20179;-80
2022/08/27 01:56:12;;;;;;;1.90;1.60;;;17.30;99.90;;;;;;5118653;28;20185;-80
2022/08/27 01:58:38;;;;;;;1.97;1.57;;;17.30;99.90;;;;;;5118014;28;20171;-81
2022/08/27 02:01:11;;;;;;;2.33;1.80;;;17.30;99.90;;;;;;5118757;28;20198;-81
2022/08/27 02:03:39;;;;;;;3.50;2.13;;;17.20;99.90;;;;;;5118517;28;20649;-81
2022/08/27 02:06:08;;;;;;;1.80;1.70;;;17.20;99.90;;;;;;5118181;28;20221;-80
2022/08/27 02:08:34;;;;;;;2.63;2.00;;;17.30;99.90;;;;;;5118154;28;20182;-80
2022/08/27 02:11:00;;;;;;;1.63;1.53;;;17.20;99.90;;;;;;5117677;28;20195;-81
2022/08/27 02:13:27;;;;;;;3.90;2.10;;;17.10;99.90;;;;;;5116518;28;20176;-82
2022/08/27 02:15:53;;;;;;;4.03;2.00;;;16.90;99.90;;;;;;5116551;28;20176;-80
2022/08/27 02:18:20;;;;;;;2.20;2.00;;;;;;;;;;5117755;28;20255;-82
2022/08/27 02:20:47;;;;;;;2.10;1.90;;;17.10;99.90;;;;;;5118182;28;20182;-81
2022/08/27 02:23:14;;;;;;;2.03;1.83;;;17.10;99.90;;;;;;5116175;28;20183;-82
2022/08/27 02:25:40;;;;;;;2.40;2.20;;;17.00;99.90;;;;;;5116551;28;20274;-80
2022/08/27 02:28:08;;;;;;;3.07;2.00;;;17.10;99.90;;;;;;5117682;28;20712;-83
2022/08/27 02:30:35;;;;;;;2.23;1.77;;;17.10;99.90;;;;;;5117262;28;20206;-81
2022/08/27 02:33:03;;;;;;;2.87;2.03;;;17.20;99.90;;;;;;5117530;28;20183;-82
2022/08/27 02:35:30;;;;;;;1.73;1.63;;;17.00;99.90;;;;;;5117095;28;20584;-82
2022/08/27 02:37:57;;;;;;;2.93;2.07;;;16.90;99.90;;;;;;5116956;28;20288;-82
2022/08/27 02:40:23;;;;;;;2.87;2.20;;;17.00;99.90;;;;;;5118163;28;20188;-81
2022/08/27 02:42:49;;;;;;;2.43;2.00;;;17.00;99.90;;;;;;5118189;28;20179;-81
2022/08/27 02:45:16;;;;;;;2.80;2.03;;;17.00;99.90;;;;;;5118617;28;20182;-81
2022/08/27 02:47:42;;;;;;;1.90;1.73;;;17.00;99.90;;;;;;5118399;28;20180;-82
2022/08/27 02:50:09;;;;;;;2.53;1.93;;;17.10;99.90;;;;;;5118290;28;20745;-83
2022/08/27 02:52:35;;;;;;;2.30;2.10;;;17.10;99.90;;;;;;5117285;28;20266;-81
2022/08/27 02:55:01;;;;;;;2.57;2.10;;;17.20;99.90;;;;;;5118676;28;20262;-80
2022/08/27 02:57:27;;;;;;;5.43;2.50;;;;;;;;;;5118469;28;20203;-81
2022/08/27 02:59:53;;;;;;;3.20;2.90;;;17.00;99.90;;;;;;5117345;28;20664;-82
2022/08/27 03:02:20;;;;;;;2.30;2.10;;;17.10;99.90;;;;;;5117314;28;20234;-82
2022/08/27 03:04:46;;;;;;;4.23;3.03;;;;;;;;;;5117007;28;20175;-81
2022/08/27 03:07:12;;;;;;;3.40;2.97;;;17.10;99.90;;;;;;5116139;28;20632;-81
2022/08/27 03:09:38;;;;;;;3.17;2.87;;;16.60;99.90;;;;;;5116862;28;20194;-81
2022/08/27 03:12:04;;;;;;;3.70;2.83;;;16.90;99.90;;;;;;5116156;28;20541;-83
2022/08/27 03:14:31;;;;;;;2.80;2.60;;;16.70;99.90;;;;;;5116995;28;20241;-80
2022/08/27 03:18:16;;;;;;;4.37;2.67;;;16.90;99.90;;;;;;5116630;28;20179;-80
2022/08/27 03:19:45;;;;;;;2.90;2.60;;;16.80;99.90;;;;;;5116497;28;20222;-81
2022/08/27 03:22:11;;;;;;;3.27;2.90;;;;;;;;;;5115943;28;20202;-81
2022/08/27 03:24:39;;;;;;;3.27;2.80;;;16.80;99.90;;;;;;5115773;28;20530;-81
2022/08/27 03:27:06;;;;;;;3.10;2.67;;;16.60;99.90;;;;;;5116340;28;20171;-82
2022/08/27 03:29:33;;;;;;;3.33;2.90;;;16.70;99.90;;;;;;5115626;28;20255;-82
2022/08/27 03:31:59;;;;;;;3.30;3.00;;;;;;;;;;5117004;28;20208;-81
2022/08/27 03:34:26;;;;;;;3.73;2.80;;;16.80;99.90;;;;;;5115164;28;20175;-81
2022/08/27 03:36:51;;;;;;;3.30;3.00;;;17.10;99.90;;;;;;5115552;28;20629;-80
2022/08/27 03:39:18;;;;;;;3.53;3.10;;;16.80;99.90;;;;;;5114834;28;20202;-83
2022/08/27 03:41:44;;;;;;;3.67;2.97;;;16.90;99.90;;;;;;5115203;28;20190;-81
2022/08/27 03:44:10;;;;;;;3.07;2.77;;;;;;;;;;5116999;28;20531;-81
2022/08/27 03:46:36;;;;;;;4.30;3.07;;;16.90;99.90;;;;;;5116970;28;20176;-80
2022/08/27 03:49:02;;;;;;;4.00;2.73;;;;;;;;;;5116436;28;20253;-80
2022/08/27 03:51:28;;;;;;;5.33;2.90;;;;;;;;;;5116782;28;20242;-80
2022/08/27 03:53:54;;;;;;;3.50;3.20;;;17.20;99.90;;;;;;5116272;28;20167;-81
2022/08/27 03:56:20;;;;;;;3.40;3.00;;;;;;;;;;5115744;28;20190;-83
2022/08/27 03:58:46;;;;;;;4.40;3.30;;;17.00;99.90;;;;;;5116795;28;20191;-82
2022/08/27 04:01:12;;;;;;;4.13;3.20;;;16.90;99.90;;;;;;5117334;28;20506;-82
2022/08/27 04:03:38;;;;;;;3.27;2.97;;;;;;;;;;5117414;28;20179;-83
2022/08/27 04:06:04;;;;;;;3.40;3.10;;;;;;;;;;5117637;28;20174;-84
2022/08/27 04:08:30;;;;;;;3.30;3.00;;;16.90;99.90;;;;;;5116168;28;20183;-82
2022/08/27 04:10:56;;;;;;;4.17;3.10;;;;;;;;;;5116209;28;20196;-83
2022/08/27 04:13:22;;;;;;;3.33;3.03;;;16.90;99.90;;;;;;5118036;28;20233;-82
2022/08/27 04:15:50;;;;;;;4.20;3.53;;;17.10;99.90;;;;;;5116808;28;20172;-83
2022/08/27 04:18:16;;;;;;;3.73;3.27;;;16.90;99.90;;;;;;5115746;28;20641;-82
2022/08/27 04:20:47;;;;;;;4.37;3.23;;;16.80;99.90;;;;;;5118349;28;20215;-81
2022/08/27 04:23:13;;;;;;;3.47;3.07;;;;;;;;;;5118741;28;20176;-83
2022/08/27 04:25:40;;;;;;;3.70;3.40;;;16.90;99.90;;;;;;5119166;28;20177;-82
2022/08/27 04:28:07;;;;;;;3.70;3.40;;;16.90;99.90;;;;;;5118290;28;20182;-82
2022/08/27 04:30:33;;;;;;;4.80;3.73;;;16.70;99.90;;;;;;5119676;28;20199;-83
2022/08/27 04:32:59;;;;;;;4.43;3.57;;;;;;;;;;5121705;28;20229;-82
2022/08/27 04:35:25;;;;;;;3.47;3.07;;;;;;;;;;5121188;28;20221;-84
2022/08/27 04:37:51;;;;;;;4.07;3.67;;;;;;;;;;5116725;28;20168;-82
2022/08/27 04:40:17;;;;;;;3.40;3.10;;;16.80;99.90;;;;;;5115343;28;20333;-82
2022/08/27 04:42:43;;;;;;;3.87;3.47;;;16.80;99.90;;;;;;5117402;28;20174;-83
2022/08/27 04:45:09;;;;;;;3.70;3.10;;;16.80;99.90;;;;;;5117555;28;20175;-82
2022/08/27 04:47:35;;;;;;;4.43;3.40;;;;;;;;;;5117132;28;20190;-82
2022/08/27 04:50:02;;;;;;;3.07;2.87;;;;;;;;;;5116831;28;20210;-83
2022/08/27 04:52:27;;;;;;;3.67;3.27;;;16.80;99.90;;;;;;5116198;28;20175;-83
2022/08/27 04:54:54;;;;;;;4.20;3.63;;;;;;;;;;5119827;28;20187;-81
2022/08/27 04:57:20;;;;;;;7.77;3.93;;;16.80;99.90;;;;;;5121436;28;20258;-79
2022/08/27 04:59:46;;;;;;;4.27;3.87;;;16.80;99.90;;;;;;5120212;28;20235;-81
2022/08/27 05:02:12;;;;;;;4.17;3.40;;;16.60;99.90;;;;;;5121516;28;20258;-82
2022/08/27 05:04:39;;;;;;;4.03;3.63;;;16.80;99.90;;;;;;5120509;28;20636;-85
2022/08/27 05:07:06;;;;;;;4.73;4.03;;;17.00;99.90;;;;;;5120139;28;20209;-84
2022/08/27 05:09:33;;;;;;;4.80;3.90;;;16.70;99.90;;;;;;5121160;28;20741;-81
2022/08/27 05:11:59;;;;;;;4.67;3.97;;;16.90;99.90;;;;;;5119920;28;20306;-82
2022/08/27 05:14:28;;;;;;;5.13;4.30;;;;;;;;;;5120508;27;20207;-82
2022/08/27 05:16:55;;;;;;;4.73;4.00;;;;;;;;;;5119778;28;20163;-82
2022/08/27 05:19:21;;;;;;;4.97;4.47;;;16.90;99.90;;;;;;5119290;27;20193;-83
2022/08/27 05:21:49;;;;;;;5.67;4.53;;;16.90;99.90;;;;;;5119539;28;20168;-83
2022/08/27 05:24:16;;;;;;;5.87;5.07;;;17.10;99.90;;;;;;5117784;28;20176;-82
2022/08/27 05:26:42;;;;;;;4.87;4.37;;;17.10;99.90;;;;;;5119036;28;20676;-82
2022/08/27 05:29:08;;;;;;;5.43;4.87;;;16.70;99.90;;;;;;5117980;28;20290;-83
2022/08/27 05:31:34;;;;;;;5.40;4.57;;;16.70;99.90;;;;;;5118090;28;20207;-84
2022/08/27 05:34:00;;;;;;;7.00;4.80;;;17.10;99.90;;;;;;5119749;28;20175;-83
2022/08/27 05:36:29;;;;;;;5.43;4.67;;;16.90;99.90;;;;;;5119777;28;20308;-83
2022/08/27 05:38:56;;;;;;;7.43;5.63;;;17.10;99.90;;;;;;5117870;28;20187;-83
2022/08/27 05:41:28;;;;;;;5.77;5.10;;;17.10;99.90;;;;;;5118053;28;20502;-84
2022/08/27 05:43:58;;;;;;;5.77;5.07;;;17.10;99.90;;;;;;5118161;28;20179;-83
2022/08/27 05:46:25;;;;;;;5.43;4.90;;;17.10;99.90;;;;;;5119873;28;20171;-85
2022/08/27 05:48:54;;;;;;;5.67;4.93;;;16.90;99.90;;;;;;5119421;28;20733;-81
2022/08/27 05:51:29;;;;;;;6.80;5.20;;;17.10;99.90;;;;;;5119858;28;20238;-83
2022/08/27 05:54:00;;;;;;;5.77;5.17;;;17.10;99.90;;;;;;5119839;28;20171;-83
2022/08/27 05:56:28;;;;;;;9.60;5.00;;;17.10;99.90;;;;;;5119861;28;20180;-83
2022/08/27 06:01:49;;;;;;;5.63;5.00;;;17.00;99.90;;;;;;5120283;28;20194;-83
2022/08/27 06:04:17;;;;;;;5.77;5.20;;;17.20;99.90;;;;;;5119396;28;20190;-84
2022/08/27 06:06:44;;;;;;;9.07;4.67;;;17.10;99.90;;;;;;5117784;28;20660;-82
2022/08/27 06:09:12;;;;;;;5.93;4.93;;;17.40;99.90;;;;;;5117499;28;20287;-83
2022/08/27 06:11:39;;;;;;;7.70;5.27;;;17.20;99.90;;;;;;5118021;28;20202;-85
2022/08/27 06:14:05;;;;;;;6.07;4.90;;;;;;;;;;5118094;28;20258;-85
2022/08/27 06:16:31;;;;;;;5.17;4.67;;;;;;;;;;5119449;28;20189;-84
2022/08/27 06:18:58;;;;;;;6.07;5.30;;;;;;;;;;5118876;28;20346;-81
2022/08/27 06:21:24;;;;;;;4.70;4.30;;;17.50;99.90;;;;;;5120324;28;20682;-83
2022/08/27 06:23:51;;;;;;;5.13;4.63;;;;;;;;;;5119997;28;20687;-83
2022/08/27 06:26:18;;;;;;;5.13;4.63;;;17.80;99.90;;;;;;5119219;28;20176;-83
2022/08/27 06:28:44;;;;;;;4.50;4.10;;;17.70;99.90;;;;;;5118104;28;20203;-84
2022/08/27 06:31:14;;;;;;;4.83;4.33;;;17.70;99.90;;;;;;5119263;28;20201;-82
2022/08/27 06:33:41;;;;;;;5.33;4.00;;;17.80;99.90;;;;;;5118284;28;20604;-84
2022/08/27 06:36:10;;;;;;;4.63;4.23;;;17.80;99.90;;;;;;5119531;28;20174;-84
2022/08/27 06:38:36;;;;;;;4.13;3.73;;;;;;;;;;5119156;28;20175;-83
2022/08/27 06:41:04;;;;;;;4.30;3.90;;;17.80;99.90;;;;;;5117806;28;20304;-82
2022/08/27 06:43:30;;;;;;;4.33;3.93;;;18.10;99.90;;;;;;5118096;28;20182;-83
2022/08/27 06:45:56;;;;;;;4.87;4.20;;;;;;;;;;5118880;28;20563;-83
2022/08/27 06:48:23;;;;;;;4.80;3.87;;;;;;;;;;5119121;28;20263;-82
2022/08/27 06:50:49;;;;;;;4.50;3.93;;;;;;;;;;5117498;28;20223;-83
2022/08/27 06:53:15;;;;;;;5.10;4.40;;;;;;;;;;5118195;28;20300;-82
2022/08/27 06:55:45;;;;;;;4.40;4.00;;;17.80;99.90;;;;;;5116089;28;20659;-83
2022/08/27 06:58:12;;;;;;;5.43;4.37;;;18.40;99.90;;;;;;5118218;28;20174;-84
2022/08/27 07:00:38;;;;;;;5.00;4.50;;;18.00;99.90;;;;;;5119562;28;20189;-84
2022/08/27 07:03:06;;;;;;;6.90;4.50;;;;;;;;;;5117940;28;20209;-83
2022/08/27 07:05:34;;;;;;;5.20;4.47;;;18.30;99.90;;;;;;5118969;28;20582;-83
2022/08/27 07:08:00;;;;;;;7.03;4.70;;;18.20;99.90;;;;;;5119835;28;20209;-83
2022/08/27 07:10:27;;;;;;;5.33;4.73;;;17.90;99.90;;;;;;5118148;28;20214;-84
2022/08/27 07:12:53;;;;;;;5.50;4.33;;;;;;;;;;5120305;28;20562;-84
2022/08/27 07:15:19;;;;;;;5.63;5.00;;;;;;;;;;5119228;28;20178;-84
2022/08/27 07:17:45;;;;;;;5.33;4.30;;;;;;;;;;5121496;28;20178;-84
2022/08/27 07:20:12;;;;;;;7.87;4.63;;;18.40;99.90;;;;;;5120989;28;20193;-84
2022/08/27 07:22:41;;;;;;;5.27;4.77;;;18.30;99.90;;;;;;5119840;28;20181;-84
2022/08/27 07:25:11;;;;;;;8.70;5.13;;;18.90;99.90;;;;;;5122288;28;20265;-82
2022/08/27 07:27:37;;;;;;;5.00;4.33;;;18.60;99.90;;;;;;5121807;28;20264;-82
2022/08/27 07:30:06;;;;;;;4.87;4.40;;;18.70;99.90;;;;;;5123246;28;20226;-83
2022/08/27 07:32:31;;;;;;;5.73;4.77;;;18.90;99.90;;;;;;5119766;28;20605;-83
2022/08/27 07:34:57;;;;;;;5.80;4.60;;;;;;;;;;5119445;28;20183;-83
2022/08/27 07:37:23;;;;;;;5.90;4.67;;;18.80;99.90;;;;;;5120048;28;20248;-82
2022/08/27 07:39:49;;;;;;;7.63;5.27;;;;;;;;;;5119338;28;20719;-83
2022/08/27 07:44:59;;;;;;;5.30;4.80;;;19.10;99.90;;;;;;5119174;28;20262;-81
2022/08/27 07:47:25;;;;;;;6.40;4.87;;;;;;;;;;5117822;28;20179;-82
2022/08/27 07:49:51;;;;;;;6.87;5.30;;;19.30;99.90;;;;;;5117885;28;20238;-83
2022/08/27 07:52:17;;;;;;;5.67;5.10;;;;;;;;;;5117791;28;20268;-83
2022/08/27 07:54:43;;;;;;;7.60;5.00;;;;;;;;;;5117860;28;20178;-83
2022/08/27 07:57:10;;;;;;;5.10;4.60;;;19.30;99.90;;;;;;5119509;28;20209;-83
2022/08/27 07:59:36;;;;;;;6.10;5.07;;;;;;;;;;5118777;28;20288;-84
2022/08/27 08:02:02;;;;;;;6.07;5.10;;;;;;;;;;5118218;28;20216;-83
2022/08/27 08:04:28;;;;;;;6.90;4.77;;;19.20;99.90;;;;;;5117650;28;20267;-83
2022/08/27 08:06:54;;;;;;;7.87;5.63;;;19.10;99.90;;;;;;5119001;28;20174;-83
2022/08/27 08:09:22;;;;;;;8.63;6.10;;;18.80;99.90;;;;;;5117194;28;20205;-83
2022/08/27 08:11:50;;;;;;;6.57;5.67;;;19.00;99.90;;;;;;5117825;28;20573;-84
2022/08/27 08:14:16;;;;;;;6.73;5.80;;;19.00;99.90;;;;;;5118597;28;20186;-84
2022/08/27 08:16:42;;;;;;;9.97;6.13;;;18.70;99.90;;;;;;5119386;28;20174;-83
2022/08/27 08:19:08;;;;;;;9.80;5.70;;;19.00;99.90;;;;;;5118959;28;20271;-83
2022/08/27 08:21:35;;;;;;;9.00;5.43;;;19.00;99.90;;;;;;5119699;28;20540;-83
2022/08/27 08:24:01;;;;;;;6.80;6.10;;;19.40;99.90;;;;;;5118326;28;20186;-83
2022/08/27 08:26:27;;;;;;;8.00;6.40;;;19.10;99.90;;;;;;5117775;28;20632;-84
2022/08/27 08:28:54;;;;;;;8.63;6.63;;;19.00;99.90;;;;;;5118413;28;20210;-84
2022/08/27 08:31:22;;;;;;;10.63;7.07;;;19.20;99.90;;;;;;5123806;28;20213;-83
2022/08/27 08:33:48;;;;;;;8.57;7.03;;;19.30;99.90;;;;;;5123487;28;20181;-85
2022/08/27 08:36:16;;;;;;;8.37;6.70;;;19.40;99.90;;;;;;5123866;28;20180;-83
2022/08/27 08:38:44;;;;;;;7.87;6.40;;;19.40;99.90;;;;;;5124791;28;20615;-84
2022/08/27 08:41:39;;;;;;;7.30;6.40;;;19.50;99.90;;;;;;5122651;28;20188;-85
2022/08/27 08:44:32;;;;;;;7.13;6.27;;;19.70;99.90;;;;;;5122830;28;20168;-85
2022/08/27 08:47:36;;;;;;;10.90;6.90;;;19.40;99.90;;;;;;5116446;28;20195;-81
2022/08/27 08:50:20;;;;;;;10.00;6.70;;;19.80;99.90;;;;;;5114388;28;20624;-83
2022/08/27 08:53:18;;;;;;;9.43;6.20;;;19.70;99.90;;;;;;5122797;28;20583;-84
2022/08/27 08:55:50;;;;;;;8.73;6.77;;;19.80;99.90;;;;;;5122827;28;20193;-86
2022/08/27 08:58:38;;;;;;;9.97;6.70;;;19.70;99.90;;;;;;5122605;28;20172;-83
2022/08/27 09:01:07;;;;;;;6.80;6.07;;;19.70;99.90;;;;;;5124207;28;20186;-84
2022/08/27 09:03:35;;;;;;;8.97;5.93;;;19.80;99.90;;;;;;5122969;28;20185;-83
2022/08/27 09:06:17;;;;;;;9.03;7.37;;;19.80;99.90;;;;;;5124178;28;20579;-85
2022/08/27 09:08:43;;;;;;;8.20;6.80;;;20.10;99.90;;;;;;5125900;28;20176;-84
2022/08/27 09:11:11;;;;;;;7.80;7.00;;;20.30;99.90;;;;;;5122483;28;20209;-82
2022/08/27 09:13:42;;;;;;;9.20;6.83;;;20.10;99.90;;;;;;5121218;28;20182;-82
2022/08/27 09:16:08;;;;;;;7.27;6.57;;;20.10;99.90;;;;;;5121514;28;20175;-83
2022/08/27 09:18:37;;;;;;;7.57;6.27;;;20.40;99.90;;;;;;5120425;28;20259;-84
2022/08/27 09:21:41;;;;;;;9.00;7.13;;;20.10;99.90;;;;;;5121060;28;20186;-82
2022/08/27 09:24:12;;;;;;;7.60;6.63;;;20.20;99.90;;;;;;5119886;28;20188;-83
2022/08/27 09:26:40;;;;;;;9.73;6.80;;;20.30;99.90;;;;;;5122789;28;20231;-83
2022/08/27 09:29:14;;;;;;;9.00;7.17;;;20.40;99.90;;;;;;5123205;28;20201;-84
2022/08/27 09:31:42;;;;;;;8.53;6.83;;;20.10;99.90;;;;;;5121201;28;20305;-83
2022/08/27 09:34:08;;;;;;;8.93;7.40;;;20.20;99.90;;;;;;5121304;28;20181;-84
2022/08/27 09:36:34;;;;;;;9.33;6.80;;;20.00;99.90;;;;;;5121061;27;20178;-84
2022/08/27 09:39:04;;;;;;;7.70;6.90;;;19.90;99.90;;;;;;5121069;28;20210;-85
2022/08/27 09:41:41;;;;;;;14.00;7.13;;;19.90;99.90;;;;;;5121286;28;20174;-83
2022/08/27 09:44:10;;;;;;;9.47;7.70;;;19.90;99.90;;;;;;5121350;28;20653;-83
2022/08/27 09:46:36;;;;;;;8.93;6.87;;;;;;;;;;5121981;28;20180;-83
2022/08/27 09:49:14;;;;;;;7.97;6.93;;;19.50;99.90;;;;;;5120156;28;20197;-82
2022/08/27 09:51:42;;;;;;;9.80;7.10;;;19.80;99.90;;;;;;5120128;28;20215;-83
2022/08/27 09:54:10;;;;;;;8.60;7.50;;;19.70;99.90;;;;;;5120501;28;20296;-84
2022/08/27 09:56:47;;;;;;;10.37;7.20;;;19.60;99.90;;;;;;5121251;28;20187;-84
2022/08/27 09:59:23;;;;;;;8.10;6.43;;;19.70;99.90;;;;;;5120118;28;20202;-85
2022/08/27 10:01:49;;;;;;;10.47;7.13;;;;;;;;;;5121787;28;20375;-82
2022/08/27 10:04:23;;;;;;;8.53;6.87;;;19.30;99.90;;;;;;5120525;28;20265;-83
2022/08/27 10:06:50;;;;;;;8.60;6.67;;;19.50;99.90;;;;;;5119851;28;20182;-83
2022/08/27 10:09:30;;;;;;;7.27;5.93;;;19.60;99.90;;;;;;5121762;28;20190;-82
2022/08/27 10:12:06;;;;;;;7.93;6.67;;;19.30;99.90;;;;;;5120144;28;20575;-82
2022/08/27 10:14:39;;;;;;;7.50;6.70;;;19.80;99.90;;;;;;5122226;28;20177;-84
2022/08/27 10:17:10;;;;;;;11.07;6.73;;;20.10;99.90;;;;;;5121967;28;20554;-84
2022/08/27 10:19:59;;;;;;;10.13;6.87;;;19.70;99.90;;;;;;5120979;28;20215;-84
2022/08/27 10:22:40;;;;;;;12.83;7.43;;;20.10;99.90;;;;;;5122307;28;20190;-84
2022/08/27 10:25:24;;;;;;;10.43;7.50;;;20.20;99.90;;;;;;5123546;28;20185;-84
2022/08/27 10:28:09;;;;;;;9.10;7.37;;;20.70;99.90;;;;;;5119385;28;20195;-83
2022/08/27 10:31:12;;;;;;;9.07;7.17;;;20.90;99.90;;;;;;5117355;28;20771;-83
2022/08/27 10:34:05;;;;;;;9.03;7.40;;;21.30;99.90;;;;;;5119265;28;20174;-82
2022/08/27 10:36:39;;;;;;;9.87;7.70;;;21.60;99.90;;;;;;5120223;28;20158;-82
2022/08/27 10:39:51;;;;;;;7.93;6.93;;;22.20;99.90;;;;;;5120237;28;20191;-83
2022/08/27 10:42:27;;;;;;;11.27;7.50;;;22.40;99.90;;;;;;5085929;28;20194;-84
2022/08/27 10:45:41;;;;;;;8.63;7.17;;;22.90;99.90;;;;;;5122054;28;20207;-83
2022/08/27 10:48:22;;;;;;;7.77;6.60;;;23.20;99.90;;;;;;5080255;28;20693;-81
2022/08/27 10:51:03;;;;;;;7.70;6.60;;;23.80;99.90;;;;;;5063585;28;20235;-83
2022/08/27 10:53:41;;;;;;;7.23;5.80;;;24.80;99.90;;;;;;5105944;28;20187;-84
2022/08/27 10:56:18;;;;;;;6.90;5.83;;;25.60;99.90;;;;;;5123015;28;20197;-82
2022/08/27 10:59:21;;;;;;;5.87;5.30;;;26.60;99.90;;;;;;5120895;28;20277;-84
2022/08/27 11:01:57;;;;;;;7.00;5.60;;;26.60;99.90;;;;;;5118869;28;20182;-84
2022/08/27 11:04:31;;;;;;;6.30;5.70;;;27.40;99.90;;;;;;5120035;28;20173;-83
2022/08/27 11:07:06;;;;;;;6.40;5.80;;;27.40;99.90;;;;;;5121323;27;20521;-83
2022/08/27 11:09:53;;;;;;;5.57;5.03;;;27.60;99.90;;;;;;5120505;28;20199;-82
2022/08/27 11:12:30;;;;;;;7.20;6.07;;;27.40;99.90;;;;;;5120556;28;20248;-82
2022/08/27 11:15:01;;;;;;;7.87;6.13;;;27.30;99.90;;;;;;5120185;28;20592;-83
2022/08/27 11:17:36;;;;;;;7.60;5.80;;;26.80;99.90;;;;;;5121151;28;20263;-83
2022/08/27 11:20:15;;;;;;;6.20;5.60;;;25.60;99.90;;;;;;5121245;28;20197;-84
2022/08/27 11:22:48;;;;;;;8.27;5.60;;;24.60;99.90;;;;;;5120272;28;20152;-84
2022/08/27 11:25:49;;;;;;;7.50;6.00;;;24.60;99.90;;;;;;5121033;28;20168;-81
2022/08/27 11:28:24;;;;;;;8.80;6.37;;;24.50;99.90;;;;;;5093245;28;20187;-82
2022/08/27 11:31:15;;;;;;;7.63;6.33;;;24.00;99.90;;;;;;5126122;28;20199;-83
2022/08/27 11:33:53;;;;;;;6.47;5.87;;;23.60;99.90;;;;;;5125694;28;20261;-82
2022/08/27 11:36:48;;;;;;;7.50;5.50;;;23.40;99.90;;;;;;5123877;28;20163;-82
2022/08/27 11:39:45;;;;;;;8.00;6.17;;;23.80;99.90;;;;;;5125174;28;20648;-83
2022/08/27 11:42:27;;;;;;;7.50;6.63;;;23.60;99.90;;;;;;5085677;28;20186;-84
2022/08/27 11:45:02;;;;;;;7.10;6.40;;;23.80;99.90;;;;;;5119992;28;20171;-84
2022/08/27 11:47:28;;;;;;;8.67;7.27;;;23.50;99.90;;;;;;5121592;28;20211;-84
2022/08/27 11:50:04;;;;;;;8.23;7.27;;;23.00;99.90;;;;;;5120037;28;20200;-83
2022/08/27 11:52:39;;;;;;;9.03;6.90;;;22.90;99.90;;;;;;5119181;28;20216;-83
2022/08/27 11:55:20;;;;;;;8.97;6.73;;;23.10;99.90;;;;;;5119158;28;20582;-82
2022/08/27 11:57:49;;;;;;;7.73;6.20;;;24.20;99.90;;;;;;5118880;28;20196;-83
2022/08/27 12:00:32;;;;;;;7.67;6.73;;;24.90;99.90;;;;;;5119600;28;20237;-82
2022/08/27 12:03:03;;;;;;;7.57;6.87;;;24.90;99.90;;;;;;5123075;28;20173;-83
2022/08/27 12:05:32;;;;;;;8.00;6.30;;;24.80;99.90;;;;;;5127790;27;20171;-82
2022/08/27 12:07:58;;;;;;;6.60;6.00;;;24.40;99.90;;;;;;5125723;28;20517;-85
2022/08/27 12:10:52;;;;;;;7.23;6.07;;;23.90;99.90;;;;;;5126852;27;20228;-82
2022/08/27 12:13:28;;;;;;;7.17;6.43;;;23.60;99.90;;;;;;5126610;28;20178;-83
2022/08/27 12:16:18;;;;;;;7.00;6.30;;;23.50;99.90;;;;;;5127528;27;20237;-83
2022/08/27 12:18:52;;;;;;;7.47;6.47;;;23.20;99.90;;;;;;5125779;28;20189;-83
2022/08/27 12:21:20;;;;;;;7.47;6.07;;;22.90;99.90;;;;;;5126132;28;20660;-83
2022/08/27 12:23:59;;;;;;;6.50;5.87;;;23.00;99.90;;;;;;5126865;28;20683;-82
2022/08/27 12:26:25;;;;;;;9.20;6.37;;;23.10;99.90;;;;;;5127461;27;20181;-82
2022/08/27 12:29:13;;;;;;;8.00;6.30;;;22.90;99.90;;;;;;5125854;28;20203;-84
2022/08/27 12:31:42;;;;;;;6.13;5.37;;;22.70;99.90;;;;;;5125728;28;20208;-83
2022/08/27 12:34:15;;;;;;;6.90;5.50;;;22.70;99.90;;;;;;5126360;28;20178;-82
2022/08/27 12:36:41;;;;;;;7.17;5.00;;;;;;;;;;5127652;27;20171;-84
2022/08/27 12:39:15;;;;;;;5.73;5.13;;;22.60;99.90;;;;;;5127423;28;20195;-83
2022/08/27 12:41:47;;;;;;;5.70;5.10;;;22.60;99.90;;;;;;5127233;27;20169;-82
2022/08/27 12:44:31;;;;;;;5.63;4.70;;;22.60;99.90;;;;;;5125504;28;20191;-82
2022/08/27 12:47:07;;;;;;;5.87;5.27;;;22.60;99.90;;;;;;5127119;27;20524;-81
2022/08/27 12:49:40;;;;;;;7.60;6.80;;;22.60;99.90;;;;;;5126039;28;20206;-81
2022/08/27 12:52:37;;;;;;;8.27;7.07;;;22.60;99.90;;;;;;5126919;27;20211;-82
2022/08/27 12:55:24;;;;;;;9.40;6.67;;;22.60;99.90;;;;;;5122778;28;20205;-82
2022/08/27 12:58:18;;;;;;;7.87;6.67;;;22.60;99.90;;;;;;5126174;27;20171;-83
2022/08/27 13:01:17;;;;;;;8.40;7.33;;;22.70;99.90;;;;;;5126251;28;20294;-83
2022/08/27 13:03:53;;;;;;;9.30;7.00;;;22.80;99.90;;;;;;5127387;28;20244;-84
2022/08/27 13:06:33;;;;;;;8.20;7.37;;;23.30;99.90;;;;;;5126890;28;20183;-83
2022/08/27 13:09:06;;;;;;;8.20;7.03;;;24.90;99.90;;;;;;5128000;27;20761;-83
2022/08/27 13:11:42;;;;;;;9.33;6.30;;;25.10;99.90;;;;;;5128331;28;20203;-82
2022/08/27 13:14:15;;;;;;;8.90;6.50;;;25.70;99.90;;;;;;5127378;28;20181;-83
2022/08/27 13:16:56;;;;;;;7.10;6.40;;;26.40;99.90;;;;;;5125685;28;20211;-83
2022/08/27 13:19:28;;;;;;;7.17;6.47;;;27.60;99.90;;;;;;5123269;27;20196;-82
2022/08/27 13:21:54;;;;;;;9.50;6.07;;;27.60;99.90;;;;;;5120838;28;20279;-83
2022/08/27 13:24:33;;;;;;;6.40;5.67;;;27.90;99.90;;;;;;5121464;28;20547;-83
2022/08/27 13:27:02;;;;;;;5.77;5.20;;;27.20;99.90;;;;;;5122416;28;20527;-83
2022/08/27 13:29:28;;;;;;;5.87;5.27;;;26.90;99.90;;;;;;5122387;28;20193;-82